Terminal Aerodrome Forecast
Issued by NWS El Paso, TX

Home | Current Version | Previous Version | Text Only | Print | Product List | Glossary On
Versions: 1 2 3 4 5 6 7 8 9 10 11 12
000
FTUS44 KEPZ 231100
TAFELP
TAF
KELP 231120Z 2312/2412 25012KT P6SM SCT100 BKN250
     FM231600 23015G25KT P6SM SCT250
     FM232000 25025G37KT P6SM FEW250
      TEMPO 2320/2324 3SM BLDU
     FM240300 27018G30KT P6SM SKC=

USA.gov is the U.S. government's official web portal to all federal, state and local government web resources and services.